sensor_id;sensor_type;location;lat;lon;timestamp;temperature;humidity
50544;DHT22;41176;44.032;20.900;2024-01-07T00:00:27;12.40;99.30
50544;DHT22;41176;44.032;20.900;2024-01-07T00:02:53;12.30;99.60
50544;DHT22;41176;44.032;20.900;2024-01-07T00:05:18;12.30;99.80
50544;DHT22;41176;44.032;20.900;2024-01-07T00:07:44;12.30;99.60
50544;DHT22;41176;44.032;20.900;2024-01-07T00:10:10;12.20;99.00
50544;DHT22;41176;44.032;20.900;2024-01-07T00:12:36;12.20;98.00
50544;DHT22;41176;44.032;20.900;2024-01-07T00:15:01;12.20;96.90
50544;DHT22;41176;44.032;20.900;2024-01-07T00:17:27;12.20;96.40
50544;DHT22;41176;44.032;20.900;2024-01-07T00:19:53;12.20;96.10
50544;DHT22;41176;44.032;20.900;2024-01-07T00:22:19;12.20;95.80
50544;DHT22;41176;44.032;20.900;2024-01-07T00:24:45;12.20;95.40
50544;DHT22;41176;44.032;20.900;2024-01-07T00:27:10;12.20;95.70
50544;DHT22;41176;44.032;20.900;2024-01-07T00:29:36;12.20;95.60
50544;DHT22;41176;44.032;20.900;2024-01-07T00:32:02;12.20;95.00
50544;DHT22;41176;44.032;20.900;2024-01-07T00:34:28;12.10;94.40
50544;DHT22;41176;44.032;20.900;2024-01-07T00:36:54;12.10;95.20
50544;DHT22;41176;44.032;20.900;2024-01-07T00:39:21;12.10;95.10
50544;DHT22;41176;44.032;20.900;2024-01-07T00:41:47;12.10;95.50
50544;DHT22;41176;44.032;20.900;2024-01-07T00:44:12;12.10;95.70
50544;DHT22;41176;44.032;20.900;2024-01-07T00:46:38;12.10;95.70
50544;DHT22;41176;44.032;20.900;2024-01-07T00:49:04;12.00;95.80
50544;DHT22;41176;44.032;20.900;2024-01-07T00:51:29;12.00;96.40
50544;DHT22;41176;44.032;20.900;2024-01-07T00:53:55;12.00;96.60
50544;DHT22;41176;44.032;20.900;2024-01-07T00:56:21;11.90;96.90
50544;DHT22;41176;44.032;20.900;2024-01-07T00:58:47;11.80;97.00
50544;DHT22;41176;44.032;20.900;2024-01-07T01:01:12;11.80;97.30
50544;DHT22;41176;44.032;20.900;2024-01-07T01:03:38;11.60;97.60
50544;DHT22;41176;44.032;20.900;2024-01-07T01:06:04;11.60;98.10
50544;DHT22;41176;44.032;20.900;2024-01-07T01:08:30;11.40;98.50
50544;DHT22;41176;44.032;20.900;2024-01-07T01:10:56;11.40;97.60
50544;DHT22;41176;44.032;20.900;2024-01-07T01:13:21;11.40;97.80
50544;DHT22;41176;44.032;20.900;2024-01-07T01:15:47;11.40;97.30
50544;DHT22;41176;44.032;20.900;2024-01-07T01:18:13;11.40;96.50
50544;DHT22;41176;44.032;20.900;2024-01-07T01:20:39;11.40;96.10
50544;DHT22;41176;44.032;20.900;2024-01-07T01:23:04;11.50;95.90
50544;DHT22;41176;44.032;20.900;2024-01-07T01:25:30;11.50;95.80
50544;DHT22;41176;44.032;20.900;2024-01-07T01:27:56;11.40;95.50
50544;DHT22;41176;44.032;20.900;2024-01-07T01:30:22;11.40;95.60
50544;DHT22;41176;44.032;20.900;2024-01-07T01:32:48;11.40;95.10
50544;DHT22;41176;44.032;20.900;2024-01-07T01:35:14;11.40;95.20
50544;DHT22;41176;44.032;20.900;2024-01-07T01:37:39;11.50;95.50
50544;DHT22;41176;44.032;20.900;2024-01-07T01:40:06;11.50;94.40
50544;DHT22;41176;44.032;20.900;2024-01-07T01:42:31;11.50;94.10
50544;DHT22;41176;44.032;20.900;2024-01-07T01:44:57;11.50;94.10
50544;DHT22;41176;44.032;20.900;2024-01-07T01:47:28;11.60;94.00
50544;DHT22;41176;44.032;20.900;2024-01-07T01:49:54;11.60;93.50
50544;DHT22;41176;44.032;20.900;2024-01-07T01:52:20;11.60;93.60
50544;DHT22;41176;44.032;20.900;2024-01-07T01:54:46;11.60;93.40
50544;DHT22;41176;44.032;20.900;2024-01-07T01:57:16;11.60;93.60
50544;DHT22;41176;44.032;20.900;2024-01-07T01:59:45;11.60;93.70
50544;DHT22;41176;44.032;20.900;2024-01-07T02:02:11;11.60;93.60
50544;DHT22;41176;44.032;20.900;2024-01-07T02:04:37;11.60;93.60
50544;DHT22;41176;44.032;20.900;2024-01-07T02:07:03;11.60;93.80
50544;DHT22;41176;44.032;20.900;2024-01-07T02:09:29;11.60;94.30
50544;DHT22;41176;44.032;20.900;2024-01-07T02:12:02;11.60;94.20
50544;DHT22;41176;44.032;20.900;2024-01-07T02:14:28;11.60;94.50
50544;DHT22;41176;44.032;20.900;2024-01-07T02:16:54;11.60;94.40
50544;DHT22;41176;44.032;20.900;2024-01-07T02:19:20;11.60;93.60
50544;DHT22;41176;44.032;20.900;2024-01-07T02:21:47;11.60;93.60
50544;DHT22;41176;44.032;20.900;2024-01-07T02:24:17;11.60;93.70
50544;DHT22;41176;44.032;20.900;2024-01-07T02:26:42;11.60;93.50
50544;DHT22;41176;44.032;20.900;2024-01-07T02:29:08;11.60;93.90
50544;DHT22;41176;44.032;20.900;2024-01-07T02:31:34;11.60;93.70
50544;DHT22;41176;44.032;20.900;2024-01-07T02:34:00;11.60;94.00
50544;DHT22;41176;44.032;20.900;2024-01-07T02:36:25;11.70;94.10
50544;DHT22;41176;44.032;20.900;2024-01-07T02:38:51;11.70;94.20
50544;DHT22;41176;44.032;20.900;2024-01-07T02:41:17;11.60;94.40
50544;DHT22;41176;44.032;20.900;2024-01-07T02:43:43;11.60;94.70
50544;DHT22;41176;44.032;20.900;2024-01-07T02:46:09;11.50;95.30
50544;DHT22;41176;44.032;20.900;2024-01-07T02:48:34;11.50;95.30
50544;DHT22;41176;44.032;20.900;2024-01-07T02:51:00;11.50;95.30
50544;DHT22;41176;44.032;20.900;2024-01-07T02:53:28;11.40;95.10
50544;DHT22;41176;44.032;20.900;2024-01-07T02:55:54;11.40;95.00
50544;DHT22;41176;44.032;20.900;2024-01-07T02:58:20;11.40;95.10
50544;DHT22;41176;44.032;20.900;2024-01-07T03:00:46;11.40;94.80
50544;DHT22;41176;44.032;20.900;2024-01-07T03:03:11;11.40;95.30
50544;DHT22;41176;44.032;20.900;2024-01-07T03:05:37;11.40;95.00
50544;DHT22;41176;44.032;20.900;2024-01-07T03:08:03;11.40;95.10
50544;DHT22;41176;44.032;20.900;2024-01-07T03:10:29;11.30;95.10
50544;DHT22;41176;44.032;20.900;2024-01-07T03:12:54;11.30;95.10
50544;DHT22;41176;44.032;20.900;2024-01-07T03:15:20;11.20;94.90
50544;DHT22;41176;44.032;20.900;2024-01-07T03:17:46;11.30;94.40
50544;DHT22;41176;44.032;20.900;2024-01-07T03:20:12;11.20;94.40
50544;DHT22;41176;44.032;20.900;2024-01-07T03:22:37;11.30;94.20
50544;DHT22;41176;44.032;20.900;2024-01-07T03:25:03;11.20;94.30
50544;DHT22;41176;44.032;20.900;2024-01-07T03:27:29;11.20;94.40
50544;DHT22;41176;44.032;20.900;2024-01-07T03:29:55;11.20;94.30
50544;DHT22;41176;44.032;20.900;2024-01-07T03:32:21;11.20;94.30
50544;DHT22;41176;44.032;20.900;2024-01-07T03:34:47;11.20;94.40
50544;DHT22;41176;44.032;20.900;2024-01-07T03:37:13;11.20;94.60
50544;DHT22;41176;44.032;20.900;2024-01-07T03:39:38;11.20;94.70
50544;DHT22;41176;44.032;20.900;2024-01-07T03:42:04;11.10;94.30
50544;DHT22;41176;44.032;20.900;2024-01-07T03:44:39;11.10;94.70
50544;DHT22;41176;44.032;20.900;2024-01-07T03:47:06;11.10;94.70
50544;DHT22;41176;44.032;20.900;2024-01-07T03:49:31;11.10;94.50
50544;DHT22;41176;44.032;20.900;2024-01-07T03:51:57;11.00;94.50
50544;DHT22;41176;44.032;20.900;2024-01-07T03:54:23;11.10;94.50
50544;DHT22;41176;44.032;20.900;2024-01-07T03:56:48;11.10;94.80
50544;DHT22;41176;44.032;20.900;2024-01-07T03:59:15;11.10;94.80
50544;DHT22;41176;44.032;20.900;2024-01-07T04:01:42;11.10;95.40
50544;DHT22;41176;44.032;20.900;2024-01-07T04:04:07;11.20;95.50
50544;DHT22;41176;44.032;20.900;2024-01-07T04:06:33;11.20;95.50
50544;DHT22;41176;44.032;20.900;2024-01-07T04:08:59;11.20;95.50
50544;DHT22;41176;44.032;20.900;2024-01-07T04:11:25;11.20;96.10
50544;DHT22;41176;44.032;20.900;2024-01-07T04:13:50;11.20;95.90
50544;DHT22;41176;44.032;20.900;2024-01-07T04:16:17;11.20;95.90
50544;DHT22;41176;44.032;20.900;2024-01-07T04:18:43;11.20;95.90
50544;DHT22;41176;44.032;20.900;2024-01-07T04:21:09;11.20;95.80
50544;DHT22;41176;44.032;20.900;2024-01-07T04:23:35;11.10;95.60
50544;DHT22;41176;44.032;20.900;2024-01-07T04:26:01;11.10;95.20
50544;DHT22;41176;44.032;20.900;2024-01-07T04:28:27;11.10;95.20
50544;DHT22;41176;44.032;20.900;2024-01-07T04:30:53;11.10;95.80
50544;DHT22;41176;44.032;20.900;2024-01-07T04:33:18;11.10;95.30
50544;DHT22;41176;44.032;20.900;2024-01-07T04:35:44;11.00;95.40
50544;DHT22;41176;44.032;20.900;2024-01-07T04:38:10;11.10;95.80
50544;DHT22;41176;44.032;20.900;2024-01-07T04:40:35;11.10;96.20
50544;DHT22;41176;44.032;20.900;2024-01-07T04:43:01;11.10;96.50
50544;DHT22;41176;44.032;20.900;2024-01-07T04:45:27;11.10;96.40
50544;DHT22;41176;44.032;20.900;2024-01-07T04:47:53;11.20;96.10
50544;DHT22;41176;44.032;20.900;2024-01-07T04:50:19;11.20;95.70
50544;DHT22;41176;44.032;20.900;2024-01-07T04:52:46;11.10;95.70
50544;DHT22;41176;44.032;20.900;2024-01-07T04:55:12;11.10;95.80
50544;DHT22;41176;44.032;20.900;2024-01-07T04:57:37;11.10;96.50
50544;DHT22;41176;44.032;20.900;2024-01-07T05:00:04;11.10;96.30
50544;DHT22;41176;44.032;20.900;2024-01-07T05:02:29;11.10;96.50
50544;DHT22;41176;44.032;20.900;2024-01-07T05:04:55;11.10;96.50
50544;DHT22;41176;44.032;20.900;2024-01-07T05:07:21;11.10;96.80
50544;DHT22;41176;44.032;20.900;2024-01-07T05:09:47;11.20;96.90
50544;DHT22;41176;44.032;20.900;2024-01-07T05:12:12;11.20;97.00
50544;DHT22;41176;44.032;20.900;2024-01-07T05:14:38;11.20;97.30
50544;DHT22;41176;44.032;20.900;2024-01-07T05:17:04;11.20;97.10
50544;DHT22;41176;44.032;20.900;2024-01-07T05:19:30;11.10;97.40
50544;DHT22;41176;44.032;20.900;2024-01-07T05:21:56;11.00;97.70
50544;DHT22;41176;44.032;20.900;2024-01-07T05:24:21;11.00;97.90
50544;DHT22;41176;44.032;20.900;2024-01-07T05:26:47;11.00;98.40
50544;DHT22;41176;44.032;20.900;2024-01-07T05:29:13;11.00;98.50
50544;DHT22;41176;44.032;20.900;2024-01-07T05:31:42;11.00;98.50
50544;DHT22;41176;44.032;20.900;2024-01-07T05:34:08;11.00;98.30
50544;DHT22;41176;44.032;20.900;2024-01-07T05:36:33;10.90;98.40
50544;DHT22;41176;44.032;20.900;2024-01-07T05:38:59;10.90;98.50
50544;DHT22;41176;44.032;20.900;2024-01-07T05:41:25;10.90;98.60
50544;DHT22;41176;44.032;20.900;2024-01-07T05:43:51;10.90;98.50
50544;DHT22;41176;44.032;20.900;2024-01-07T05:46:17;11.00;98.30
50544;DHT22;41176;44.032;20.900;2024-01-07T05:48:44;11.00;97.90
50544;DHT22;41176;44.032;20.900;2024-01-07T05:51:10;11.00;98.30
50544;DHT22;41176;44.032;20.900;2024-01-07T05:53:35;11.00;97.90
50544;DHT22;41176;44.032;20.900;2024-01-07T05:56:01;11.00;98.20
50544;DHT22;41176;44.032;20.900;2024-01-07T05:58:28;11.00;98.00
50544;DHT22;41176;44.032;20.900;2024-01-07T06:00:54;11.00;97.80
50544;DHT22;41176;44.032;20.900;2024-01-07T06:03:20;11.00;98.10
50544;DHT22;41176;44.032;20.900;2024-01-07T06:05:45;11.00;98.80
50544;DHT22;41176;44.032;20.900;2024-01-07T06:08:11;11.00;99.30
50544;DHT22;41176;44.032;20.900;2024-01-07T06:10:39;11.00;99.40
50544;DHT22;41176;44.032;20.900;2024-01-07T06:13:04;11.00;99.90
50544;DHT22;41176;44.032;20.900;2024-01-07T06:15:30;11.00;99.90
50544;DHT22;41176;44.032;20.900;2024-01-07T06:18:19;11.00;99.90
50544;DHT22;41176;44.032;20.900;2024-01-07T06:20:45;10.90;99.90
50544;DHT22;41176;44.032;20.900;2024-01-07T06:23:16;10.90;99.90
50544;DHT22;41176;44.032;20.900;2024-01-07T06:25:55;10.90;99.90
50544;DHT22;41176;44.032;20.900;2024-01-07T06:28:21;10.90;99.90
50544;DHT22;41176;44.032;20.900;2024-01-07T06:30:47;10.90;99.90
50544;DHT22;41176;44.032;20.900;2024-01-07T06:33:16;10.90;99.90
50544;DHT22;41176;44.032;20.900;2024-01-07T06:35:44;10.80;99.90
50544;DHT22;41176;44.032;20.900;2024-01-07T06:38:10;10.70;99.90
50544;DHT22;41176;44.032;20.900;2024-01-07T06:40:40;10.60;99.90
50544;DHT22;41176;44.032;20.900;2024-01-07T06:43:06;10.50;99.90
50544;DHT22;41176;44.032;20.900;2024-01-07T06:45:32;10.50;99.90
50544;DHT22;41176;44.032;20.900;2024-01-07T06:48:00;10.40;99.90
50544;DHT22;41176;44.032;20.900;2024-01-07T06:50:34;10.40;99.90
50544;DHT22;41176;44.032;20.900;2024-01-07T06:53:03;10.40;99.90
50544;DHT22;41176;44.032;20.900;2024-01-07T06:55:29;10.40;99.90
50544;DHT22;41176;44.032;20.900;2024-01-07T06:57:55;10.40;99.90
50544;DHT22;41176;44.032;20.900;2024-01-07T07:00:20;10.40;99.90
50544;DHT22;41176;44.032;20.900;2024-01-07T07:02:46;10.40;99.90
50544;DHT22;41176;44.032;20.900;2024-01-07T07:05:12;10.50;99.90
50544;DHT22;41176;44.032;20.900;2024-01-07T07:07:38;10.50;99.90
50544;DHT22;41176;44.032;20.900;2024-01-07T07:10:04;10.50;99.90
50544;DHT22;41176;44.032;20.900;2024-01-07T07:12:30;10.50;99.90
50544;DHT22;41176;44.032;20.900;2024-01-07T07:14:55;10.50;99.90
50544;DHT22;41176;44.032;20.900;2024-01-07T07:17:21;10.50;99.90
50544;DHT22;41176;44.032;20.900;2024-01-07T07:19:47;10.50;99.90
50544;DHT22;41176;44.032;20.900;2024-01-07T07:22:12;10.50;99.90
50544;DHT22;41176;44.032;20.900;2024-01-07T07:24:41;10.50;99.90
50544;DHT22;41176;44.032;20.900;2024-01-07T07:27:08;10.50;99.90
50544;DHT22;41176;44.032;20.900;2024-01-07T07:29:33;10.50;99.90
50544;DHT22;41176;44.032;20.900;2024-01-07T07:31:59;10.60;99.90
50544;DHT22;41176;44.032;20.900;2024-01-07T07:34:25;10.60;99.90
50544;DHT22;41176;44.032;20.900;2024-01-07T07:36:50;10.60;99.90
50544;DHT22;41176;44.032;20.900;2024-01-07T07:39:17;10.60;99.90
50544;DHT22;41176;44.032;20.900;2024-01-07T07:41:43;10.60;99.90
50544;DHT22;41176;44.032;20.900;2024-01-07T07:44:08;10.50;99.90
50544;DHT22;41176;44.032;20.900;2024-01-07T07:46:34;10.50;99.90
50544;DHT22;41176;44.032;20.900;2024-01-07T07:49:00;10.60;99.90
50544;DHT22;41176;44.032;20.900;2024-01-07T07:51:26;10.40;99.90
50544;DHT22;41176;44.032;20.900;2024-01-07T07:53:52;10.40;99.90
50544;DHT22;41176;44.032;20.900;2024-01-07T07:56:18;10.40;99.90
50544;DHT22;41176;44.032;20.900;2024-01-07T07:58:44;10.50;99.90
50544;DHT22;41176;44.032;20.900;2024-01-07T08:01:10;10.60;99.90
50544;DHT22;41176;44.032;20.900;2024-01-07T08:03:35;10.60;99.90
50544;DHT22;41176;44.032;20.900;2024-01-07T08:06:02;10.70;99.90
50544;DHT22;41176;44.032;20.900;2024-01-07T08:08:28;10.80;99.90
50544;DHT22;41176;44.032;20.900;2024-01-07T08:10:53;10.80;99.90
50544;DHT22;41176;44.032;20.900;2024-01-07T08:13:19;10.80;99.90
50544;DHT22;41176;44.032;20.900;2024-01-07T08:15:45;10.80;99.90
50544;DHT22;41176;44.032;20.900;2024-01-07T08:18:11;10.80;99.90
50544;DHT22;41176;44.032;20.900;2024-01-07T08:20:36;10.90;99.90
50544;DHT22;41176;44.032;20.900;2024-01-07T08:23:02;10.80;99.90
50544;DHT22;41176;44.032;20.900;2024-01-07T08:25:28;10.80;99.90
50544;DHT22;41176;44.032;20.900;2024-01-07T08:27:54;10.80;99.90
50544;DHT22;41176;44.032;20.900;2024-01-07T08:30:19;10.80;99.90
50544;DHT22;41176;44.032;20.900;2024-01-07T08:32:45;10.80;99.90
50544;DHT22;41176;44.032;20.900;2024-01-07T08:35:11;10.80;99.90
50544;DHT22;41176;44.032;20.900;2024-01-07T08:37:37;10.80;99.90
50544;DHT22;41176;44.032;20.900;2024-01-07T08:40:03;10.90;99.90
50544;DHT22;41176;44.032;20.900;2024-01-07T08:42:28;10.90;99.90
50544;DHT22;41176;44.032;20.900;2024-01-07T08:44:57;11.00;99.90
50544;DHT22;41176;44.032;20.900;2024-01-07T08:47:26;11.00;99.90
50544;DHT22;41176;44.032;20.900;2024-01-07T08:49:51;11.10;99.90
50544;DHT22;41176;44.032;20.900;2024-01-07T08:52:19;11.10;99.90
50544;DHT22;41176;44.032;20.900;2024-01-07T08:54:45;11.20;99.90
50544;DHT22;41176;44.032;20.900;2024-01-07T08:57:10;11.10;99.90
50544;DHT22;41176;44.032;20.900;2024-01-07T08:59:36;11.10;99.90
50544;DHT22;41176;44.032;20.900;2024-01-07T09:02:02;11.10;99.90
50544;DHT22;41176;44.032;20.900;2024-01-07T09:04:28;11.10;99.90
50544;DHT22;41176;44.032;20.900;2024-01-07T09:06:54;11.10;99.90
50544;DHT22;41176;44.032;20.900;2024-01-07T09:09:20;11.20;99.90
50544;DHT22;41176;44.032;20.900;2024-01-07T09:11:46;11.20;99.90
50544;DHT22;41176;44.032;20.900;2024-01-07T09:14:12;11.20;99.90
50544;DHT22;41176;44.032;20.900;2024-01-07T09:16:40;11.10;99.90
50544;DHT22;41176;44.032;20.900;2024-01-07T09:19:05;11.20;99.90
50544;DHT22;41176;44.032;20.900;2024-01-07T09:21:31;11.20;99.90
50544;DHT22;41176;44.032;20.900;2024-01-07T09:23:57;11.30;99.90
50544;DHT22;41176;44.032;20.900;2024-01-07T09:26:22;11.30;99.90
50544;DHT22;41176;44.032;20.900;2024-01-07T09:28:48;11.30;99.90
50544;DHT22;41176;44.032;20.900;2024-01-07T09:31:14;11.30;99.90
50544;DHT22;41176;44.032;20.900;2024-01-07T09:33:40;11.40;99.90
50544;DHT22;41176;44.032;20.900;2024-01-07T09:36:07;11.40;99.90
50544;DHT22;41176;44.032;20.900;2024-01-07T09:38:33;11.40;99.90
50544;DHT22;41176;44.032;20.900;2024-01-07T09:40:59;11.50;99.90
50544;DHT22;41176;44.032;20.900;2024-01-07T09:43:24;11.40;99.90
50544;DHT22;41176;44.032;20.900;2024-01-07T09:45:51;11.40;99.90
50544;DHT22;41176;44.032;20.900;2024-01-07T09:48:19;11.40;99.90
50544;DHT22;41176;44.032;20.900;2024-01-07T09:50:44;11.50;99.90
50544;DHT22;41176;44.032;20.900;2024-01-07T09:53:15;11.40;99.90
50544;DHT22;41176;44.032;20.900;2024-01-07T09:55:56;11.40;99.90
50544;DHT22;41176;44.032;20.900;2024-01-07T09:58:25;11.40;99.90
50544;DHT22;41176;44.032;20.900;2024-01-07T10:00:52;11.40;99.90
50544;DHT22;41176;44.032;20.900;2024-01-07T10:03:17;11.40;99.90
50544;DHT22;41176;44.032;20.900;2024-01-07T10:05:43;11.40;99.90
50544;DHT22;41176;44.032;20.900;2024-01-07T10:08:09;11.40;99.90
50544;DHT22;41176;44.032;20.900;2024-01-07T10:10:35;11.40;99.90
50544;DHT22;41176;44.032;20.900;2024-01-07T10:13:01;11.50;99.90
50544;DHT22;41176;44.032;20.900;2024-01-07T10:15:28;11.50;99.90
50544;DHT22;41176;44.032;20.900;2024-01-07T10:18:03;11.50;99.90
50544;DHT22;41176;44.032;20.900;2024-01-07T10:20:34;11.60;99.90
50544;DHT22;41176;44.032;20.900;2024-01-07T10:23:02;11.60;99.90
50544;DHT22;41176;44.032;20.900;2024-01-07T10:25:30;11.60;99.90
50544;DHT22;41176;44.032;20.900;2024-01-07T10:28:01;11.60;99.90
50544;DHT22;41176;44.032;20.900;2024-01-07T10:30:28;11.60;99.90
50544;DHT22;41176;44.032;20.900;2024-01-07T10:33:03;11.60;99.90
50544;DHT22;41176;44.032;20.900;2024-01-07T10:35:33;11.60;99.90
50544;DHT22;41176;44.032;20.900;2024-01-07T10:38:00;11.60;99.90
50544;DHT22;41176;44.032;20.900;2024-01-07T10:40:27;11.60;99.90
50544;DHT22;41176;44.032;20.900;2024-01-07T10:42:55;11.60;99.90
50544;DHT22;41176;44.032;20.900;2024-01-07T10:45:22;11.60;99.90
50544;DHT22;41176;44.032;20.900;2024-01-07T10:47:54;11.50;99.90
50544;DHT22;41176;44.032;20.900;2024-01-07T10:50:21;11.50;99.90
50544;DHT22;41176;44.032;20.900;2024-01-07T10:52:50;11.50;99.90
50544;DHT22;41176;44.032;20.900;2024-01-07T10:55:19;11.50;99.90
50544;DHT22;41176;44.032;20.900;2024-01-07T10:57:48;11.40;99.90
50544;DHT22;41176;44.032;20.900;2024-01-07T11:00:16;11.40;99.90
50544;DHT22;41176;44.032;20.900;2024-01-07T11:03:38;11.40;99.90
50544;DHT22;41176;44.032;20.900;2024-01-07T11:05:54;11.40;99.90
50544;DHT22;41176;44.032;20.900;2024-01-07T11:08:49;11.40;99.90
50544;DHT22;41176;44.032;20.900;2024-01-07T11:11:36;11.40;99.90
50544;DHT22;41176;44.032;20.900;2024-01-07T11:14:03;11.50;99.90
50544;DHT22;41176;44.032;20.900;2024-01-07T11:16:47;11.50;99.90
50544;DHT22;41176;44.032;20.900;2024-01-07T11:19:13;11.50;99.90
50544;DHT22;41176;44.032;20.900;2024-01-07T11:21:40;11.40;99.90
50544;DHT22;41176;44.032;20.900;2024-01-07T11:24:06;11.40;99.90
50544;DHT22;41176;44.032;20.900;2024-01-07T11:26:32;11.40;99.90
50544;DHT22;41176;44.032;20.900;2024-01-07T11:28:57;11.40;99.90
50544;DHT22;41176;44.032;20.900;2024-01-07T11:34:04;11.40;99.90
50544;DHT22;41176;44.032;20.900;2024-01-07T11:36:31;11.40;99.90
50544;DHT22;41176;44.032;20.900;2024-01-07T11:38:57;11.40;99.90
50544;DHT22;41176;44.032;20.900;2024-01-07T11:41:24;11.40;99.90
50544;DHT22;41176;44.032;20.900;2024-01-07T11:43:55;11.30;99.90
50544;DHT22;41176;44.032;20.900;2024-01-07T11:46:23;11.40;99.90
50544;DHT22;41176;44.032;20.900;2024-01-07T11:48:52;11.40;99.90
50544;DHT22;41176;44.032;20.900;2024-01-07T11:51:18;11.40;99.90
50544;DHT22;41176;44.032;20.900;2024-01-07T11:53:47;11.40;99.90
50544;DHT22;41176;44.032;20.900;2024-01-07T11:56:13;11.40;99.90
50544;DHT22;41176;44.032;20.900;2024-01-07T11:58:40;11.30;99.90
50544;DHT22;41176;44.032;20.900;2024-01-07T12:01:07;11.30;99.90
50544;DHT22;41176;44.032;20.900;2024-01-07T12:03:32;11.30;99.90
50544;DHT22;41176;44.032;20.900;2024-01-07T12:05:59;11.30;99.90
50544;DHT22;41176;44.032;20.900;2024-01-07T12:08:25;11.30;99.90
50544;DHT22;41176;44.032;20.900;2024-01-07T12:10:51;11.20;99.90
50544;DHT22;41176;44.032;20.900;2024-01-07T12:13:17;11.20;99.90
50544;DHT22;41176;44.032;20.900;2024-01-07T12:15:46;11.20;99.90
50544;DHT22;41176;44.032;20.900;2024-01-07T12:18:11;11.20;99.90
50544;DHT22;41176;44.032;20.900;2024-01-07T12:20:37;11.20;99.90
50544;DHT22;41176;44.032;20.900;2024-01-07T12:23:09;11.20;99.90
50544;DHT22;41176;44.032;20.900;2024-01-07T12:25:36;11.20;99.90
50544;DHT22;41176;44.032;20.900;2024-01-07T12:28:02;11.20;99.90
50544;DHT22;41176;44.032;20.900;2024-01-07T12:30:31;11.20;99.90
50544;DHT22;41176;44.032;20.900;2024-01-07T12:32:57;11.10;99.90
50544;DHT22;41176;44.032;20.900;2024-01-07T12:35:27;11.20;99.90
50544;DHT22;41176;44.032;20.900;2024-01-07T12:37:53;11.10;99.90
50544;DHT22;41176;44.032;20.900;2024-01-07T12:40:19;11.20;99.90
50544;DHT22;41176;44.032;20.900;2024-01-07T12:42:45;11.10;99.90
50544;DHT22;41176;44.032;20.900;2024-01-07T12:45:12;11.10;99.90
50544;DHT22;41176;44.032;20.900;2024-01-07T12:47:41;11.10;99.90
50544;DHT22;41176;44.032;20.900;2024-01-07T12:50:08;11.10;99.90
50544;DHT22;41176;44.032;20.900;2024-01-07T12:52:39;11.20;99.90
50544;DHT22;41176;44.032;20.900;2024-01-07T12:55:06;11.20;99.90
50544;DHT22;41176;44.032;20.900;2024-01-07T12:57:35;11.20;99.90
50544;DHT22;41176;44.032;20.900;2024-01-07T13:00:05;11.20;99.90
50544;DHT22;41176;44.032;20.900;2024-01-07T13:02:32;11.20;99.90
50544;DHT22;41176;44.032;20.900;2024-01-07T13:04:58;11.20;99.90
50544;DHT22;41176;44.032;20.900;2024-01-07T13:07:24;11.20;99.90
50544;DHT22;41176;44.032;20.900;2024-01-07T13:09:51;11.20;99.90
50544;DHT22;41176;44.032;20.900;2024-01-07T13:12:17;11.20;99.90
50544;DHT22;41176;44.032;20.900;2024-01-07T13:14:43;11.20;99.90
50544;DHT22;41176;44.032;20.900;2024-01-07T13:17:09;11.20;99.90
50544;DHT22;41176;44.032;20.900;2024-01-07T13:19:35;11.20;99.90
50544;DHT22;41176;44.032;20.900;2024-01-07T13:22:01;11.20;99.90
50544;DHT22;41176;44.032;20.900;2024-01-07T13:24:27;11.20;99.90
50544;DHT22;41176;44.032;20.900;2024-01-07T13:26:53;11.20;99.90
50544;DHT22;41176;44.032;20.900;2024-01-07T13:29:19;11.20;99.90
50544;DHT22;41176;44.032;20.900;2024-01-07T13:31:44;11.10;99.90
50544;DHT22;41176;44.032;20.900;2024-01-07T13:34:10;11.10;99.90
50544;DHT22;41176;44.032;20.900;2024-01-07T13:36:36;11.10;99.90
50544;DHT22;41176;44.032;20.900;2024-01-07T13:39:02;11.10;99.90
50544;DHT22;41176;44.032;20.900;2024-01-07T13:41:28;11.10;99.90
50544;DHT22;41176;44.032;20.900;2024-01-07T13:43:54;11.00;99.90
50544;DHT22;41176;44.032;20.900;2024-01-07T13:46:23;11.00;99.90
50544;DHT22;41176;44.032;20.900;2024-01-07T13:48:53;11.00;99.90
50544;DHT22;41176;44.032;20.900;2024-01-07T13:51:18;11.00;99.90
50544;DHT22;41176;44.032;20.900;2024-01-07T13:53:44;11.00;99.90
50544;DHT22;41176;44.032;20.900;2024-01-07T13:56:12;11.00;99.90
50544;DHT22;41176;44.032;20.900;2024-01-07T13:58:38;11.00;99.90
50544;DHT22;41176;44.032;20.900;2024-01-07T14:01:04;11.00;99.90
50544;DHT22;41176;44.032;20.900;2024-01-07T14:03:31;11.00;99.90
50544;DHT22;41176;44.032;20.900;2024-01-07T14:05:58;10.90;99.90
50544;DHT22;41176;44.032;20.900;2024-01-07T14:08:24;10.90;99.90
50544;DHT22;41176;44.032;20.900;2024-01-07T14:10:50;10.90;99.90
50544;DHT22;41176;44.032;20.900;2024-01-07T14:13:15;11.00;99.90
50544;DHT22;41176;44.032;20.900;2024-01-07T14:15:42;10.90;99.90
50544;DHT22;41176;44.032;20.900;2024-01-07T14:18:08;10.90;99.90
50544;DHT22;41176;44.032;20.900;2024-01-07T14:20:35;10.90;99.90
50544;DHT22;41176;44.032;20.900;2024-01-07T14:23:01;10.80;99.90
50544;DHT22;41176;44.032;20.900;2024-01-07T14:25:27;10.80;99.90
50544;DHT22;41176;44.032;20.900;2024-01-07T14:27:53;10.80;99.90
50544;DHT22;41176;44.032;20.900;2024-01-07T14:30:19;10.80;99.90
50544;DHT22;41176;44.032;20.900;2024-01-07T14:32:44;10.80;99.90
50544;DHT22;41176;44.032;20.900;2024-01-07T14:35:13;10.90;99.90
50544;DHT22;41176;44.032;20.900;2024-01-07T14:37:39;10.80;99.90
50544;DHT22;41176;44.032;20.900;2024-01-07T14:40:06;10.90;99.90
50544;DHT22;41176;44.032;20.900;2024-01-07T14:42:32;10.90;99.90
50544;DHT22;41176;44.032;20.900;2024-01-07T14:44:58;10.80;99.90
50544;DHT22;41176;44.032;20.900;2024-01-07T14:47:23;10.70;99.90
50544;DHT22;41176;44.032;20.900;2024-01-07T14:49:49;10.70;99.90
50544;DHT22;41176;44.032;20.900;2024-01-07T14:52:15;10.70;99.90
50544;DHT22;41176;44.032;20.900;2024-01-07T14:54:40;10.70;99.90
50544;DHT22;41176;44.032;20.900;2024-01-07T14:57:06;10.70;99.90
50544;DHT22;41176;44.032;20.900;2024-01-07T14:59:34;10.70;99.90
50544;DHT22;41176;44.032;20.900;2024-01-07T15:02:03;10.70;99.90
50544;DHT22;41176;44.032;20.900;2024-01-07T15:04:28;10.70;99.90
50544;DHT22;41176;44.032;20.900;2024-01-07T15:06:54;10.80;99.90
50544;DHT22;41176;44.032;20.900;2024-01-07T15:09:22;10.80;99.90
50544;DHT22;41176;44.032;20.900;2024-01-07T15:11:47;10.80;99.90
50544;DHT22;41176;44.032;20.900;2024-01-07T15:14:14;10.70;99.90